sensor_id;sensor_type;location;lat;lon;timestamp;pressure;altitude;pressure_sealevel;temperature;humidity
68169;BME280;54981;50.206;15.978;2022-10-18T00:00:59;99910.47;;;10.89;100.00
68169;BME280;54981;50.206;15.978;2022-10-18T00:03:25;99906.78;;;10.93;100.00
68169;BME280;54981;50.206;15.978;2022-10-18T00:05:50;99908.25;;;11.00;100.00
68169;BME280;54981;50.206;15.978;2022-10-18T00:08:17;99909.25;;;10.98;100.00
68169;BME280;54981;50.206;15.978;2022-10-18T00:10:43;99910.06;;;11.00;100.00
68169;BME280;54981;50.206;15.978;2022-10-18T00:13:09;99906.53;;;10.99;100.00
68169;BME280;54981;50.206;15.978;2022-10-18T00:15:34;99910.19;;;10.97;100.00
68169;BME280;54981;50.206;15.978;2022-10-18T00:18:00;99901.50;;;10.92;100.00
68169;BME280;54981;50.206;15.978;2022-10-18T00:20:25;99906.72;;;10.95;100.00
68169;BME280;54981;50.206;15.978;2022-10-18T00:22:51;99899.53;;;10.97;100.00
68169;BME280;54981;50.206;15.978;2022-10-18T00:25:16;99901.13;;;11.01;100.00
68169;BME280;54981;50.206;15.978;2022-10-18T00:27:42;99908.44;;;10.74;100.00
68169;BME280;54981;50.206;15.978;2022-10-18T00:30:07;99905.69;;;10.53;100.00
68169;BME280;54981;50.206;15.978;2022-10-18T00:32:37;99904.47;;;10.62;100.00
68169;BME280;54981;50.206;15.978;2022-10-18T00:35:04;99907.19;;;10.60;100.00
68169;BME280;54981;50.206;15.978;2022-10-18T00:37:31;99909.81;;;10.62;100.00
68169;BME280;54981;50.206;15.978;2022-10-18T00:39:56;99909.75;;;10.63;100.00
68169;BME280;54981;50.206;15.978;2022-10-18T00:42:35;99904.47;;;10.62;100.00
68169;BME280;54981;50.206;15.978;2022-10-18T00:45:11;99902.00;;;10.57;100.00
68169;BME280;54981;50.206;15.978;2022-10-18T00:47:37;99897.66;;;10.55;100.00
68169;BME280;54981;50.206;15.978;2022-10-18T00:50:04;99889.94;;;10.49;100.00
68169;BME280;54981;50.206;15.978;2022-10-18T00:52:39;99887.19;;;10.50;100.00
68169;BME280;54981;50.206;15.978;2022-10-18T00:55:07;99889.94;;;10.49;100.00
68169;BME280;54981;50.206;15.978;2022-10-18T00:57:33;99892.47;;;10.52;100.00
68169;BME280;54981;50.206;15.978;2022-10-18T00:59:59;99879.31;;;10.47;100.00
68169;BME280;54981;50.206;15.978;2022-10-18T01:02:25;99878.75;;;10.39;100.00
68169;BME280;54981;50.206;15.978;2022-10-18T01:04:51;99876.94;;;10.16;100.00
68169;BME280;54981;50.206;15.978;2022-10-18T01:17:49;99864.59;;;9.91;100.00
68169;BME280;54981;50.206;15.978;2022-10-18T01:21:37;99865.28;;;9.96;100.00
68169;BME280;54981;50.206;15.978;2022-10-18T01:32:11;99863.81;;;9.88;100.00
68169;BME280;54981;50.206;15.978;2022-10-18T01:34:39;99861.31;;;9.83;100.00
68169;BME280;54981;50.206;15.978;2022-10-18T01:37:10;99857.75;;;9.84;100.00
68169;BME280;54981;50.206;15.978;2022-10-18T01:39:39;99854.00;;;9.90;100.00
68169;BME280;54981;50.206;15.978;2022-10-18T01:42:09;99852.16;;;9.92;100.00
68169;BME280;54981;50.206;15.978;2022-10-18T01:44:37;99853.00;;;9.92;100.00
68169;BME280;54981;50.206;15.978;2022-10-18T01:47:05;99849.53;;;9.90;100.00
68169;BME280;54981;50.206;15.978;2022-10-18T01:49:31;99855.22;;;9.56;100.00
68169;BME280;54981;50.206;15.978;2022-10-18T01:51:57;99858.19;;;9.48;100.00
68169;BME280;54981;50.206;15.978;2022-10-18T01:54:27;99858.22;;;9.47;100.00
68169;BME280;54981;50.206;15.978;2022-10-18T01:59:53;99848.25;;;9.53;100.00
68169;BME280;54981;50.206;15.978;2022-10-18T02:05:11;99836.75;;;9.53;100.00
68169;BME280;54981;50.206;15.978;2022-10-18T02:10:21;99855.13;;;9.59;100.00
68169;BME280;54981;50.206;15.978;2022-10-18T02:12:51;99850.53;;;9.39;100.00
68169;BME280;54981;50.206;15.978;2022-10-18T02:15:22;99851.09;;;9.47;100.00
68169;BME280;54981;50.206;15.978;2022-10-18T02:17:49;99845.09;;;9.42;100.00
68169;BME280;54981;50.206;15.978;2022-10-18T02:20:17;99850.41;;;9.42;100.00
68169;BME280;54981;50.206;15.978;2022-10-18T02:22:46;99852.25;;;9.40;100.00
68169;BME280;54981;50.206;15.978;2022-10-18T02:25:18;99851.22;;;9.44;100.00
68169;BME280;54981;50.206;15.978;2022-10-18T02:27:44;99856.38;;;9.49;100.00
68169;BME280;54981;50.206;15.978;2022-10-18T02:30:10;99855.50;;;9.48;100.00
68169;BME280;54981;50.206;15.978;2022-10-18T02:32:48;99851.09;;;9.47;100.00
68169;BME280;54981;50.206;15.978;2022-10-18T02:35:34;99850.41;;;9.42;100.00
68169;BME280;54981;50.206;15.978;2022-10-18T02:38:02;99853.91;;;9.43;100.00
68169;BME280;54981;50.206;15.978;2022-10-18T02:40:28;99855.69;;;9.44;100.00
68169;BME280;54981;50.206;15.978;2022-10-18T02:42:56;99852.91;;;9.47;100.00
68169;BME280;54981;50.206;15.978;2022-10-18T02:45:22;99848.59;;;9.43;100.00
68169;BME280;54981;50.206;15.978;2022-10-18T02:47:49;99848.59;;;9.43;100.00
68169;BME280;54981;50.206;15.978;2022-10-18T02:50:14;99848.69;;;9.41;100.00
68169;BME280;54981;50.206;15.978;2022-10-18T02:52:39;99850.63;;;9.36;100.00
68169;BME280;54981;50.206;15.978;2022-10-18T02:55:06;99850.13;;;9.25;100.00
68169;BME280;54981;50.206;15.978;2022-10-18T02:57:31;99856.19;;;9.28;100.00
68169;BME280;54981;50.206;15.978;2022-10-18T02:59:57;99855.25;;;9.31;100.00
68169;BME280;54981;50.206;15.978;2022-10-18T03:02:22;99850.09;;;9.26;100.00
68169;BME280;54981;50.206;15.978;2022-10-18T03:04:48;99853.63;;;9.27;100.00
68169;BME280;54981;50.206;15.978;2022-10-18T03:07:13;99853.00;;;9.18;100.00
68169;BME280;54981;50.206;15.978;2022-10-18T03:09:38;99850.13;;;9.00;100.00
68169;BME280;54981;50.206;15.978;2022-10-18T03:12:04;99849.63;;;8.88;100.00
68169;BME280;54981;50.206;15.978;2022-10-18T03:14:29;99845.16;;;8.89;100.00
68169;BME280;54981;50.206;15.978;2022-10-18T03:16:54;99847.63;;;8.95;100.00
68169;BME280;54981;50.206;15.978;2022-10-18T03:19:20;99847.50;;;8.98;100.00
68169;BME280;54981;50.206;15.978;2022-10-18T03:21:45;99849.50;;;8.91;100.00
68169;BME280;54981;50.206;15.978;2022-10-18T03:24:10;99848.13;;;8.80;100.00
68169;BME280;54981;50.206;15.978;2022-10-18T03:26:35;99853.34;;;8.83;100.00
68169;BME280;54981;50.206;15.978;2022-10-18T03:29:01;99848.03;;;8.83;100.00
68169;BME280;54981;50.206;15.978;2022-10-18T03:31:26;99854.25;;;8.82;100.00
68169;BME280;54981;50.206;15.978;2022-10-18T03:33:51;99859.31;;;8.89;100.00
68169;BME280;54981;50.206;15.978;2022-10-18T03:36:17;99854.66;;;8.96;100.00
68169;BME280;54981;50.206;15.978;2022-10-18T03:38:42;99857.19;;;8.99;100.00
68169;BME280;54981;50.206;15.978;2022-10-18T03:41:09;99856.22;;;9.02;100.00
68169;BME280;54981;50.206;15.978;2022-10-18T03:43:34;99857.19;;;8.99;100.00
68169;BME280;54981;50.206;15.978;2022-10-18T03:46:00;99851.50;;;8.85;100.00
68169;BME280;54981;50.206;15.978;2022-10-18T03:48:25;99860.78;;;8.71;100.00
68169;BME280;54981;50.206;15.978;2022-10-18T03:50:51;99852.16;;;8.65;100.00
68169;BME280;54981;50.206;15.978;2022-10-18T03:53:16;99853.00;;;8.65;100.00
68169;BME280;54981;50.206;15.978;2022-10-18T03:55:42;99850.09;;;8.73;100.00
68169;BME280;54981;50.206;15.978;2022-10-18T03:58:07;99848.28;;;8.75;100.00
68169;BME280;54981;50.206;15.978;2022-10-18T04:00:33;99857.88;;;8.79;100.00
68169;BME280;54981;50.206;15.978;2022-10-18T04:02:59;99860.38;;;8.84;100.00
68169;BME280;54981;50.206;15.978;2022-10-18T04:05:24;99850.59;;;8.86;100.00
68169;BME280;54981;50.206;15.978;2022-10-18T04:07:52;99845.16;;;8.89;100.00
68169;BME280;54981;50.206;15.978;2022-10-18T04:10:17;99844.34;;;8.87;100.00
68169;BME280;54981;50.206;15.978;2022-10-18T04:12:42;99844.25;;;8.90;100.00
68169;BME280;54981;50.206;15.978;2022-10-18T04:15:08;99836.34;;;8.88;100.00
68169;BME280;54981;50.206;15.978;2022-10-18T04:17:34;99841.59;;;8.90;100.00
68169;BME280;54981;50.206;15.978;2022-10-18T04:19:59;99838.22;;;8.85;100.00
68169;BME280;54981;50.206;15.978;2022-10-18T04:22:24;99839.34;;;8.78;100.00
68169;BME280;54981;50.206;15.978;2022-10-18T04:24:50;99833.22;;;8.76;100.00
68169;BME280;54981;50.206;15.978;2022-10-18T04:27:17;99831.59;;;8.71;100.00
68169;BME280;54981;50.206;15.978;2022-10-18T04:29:43;99840.44;;;8.70;100.00
68169;BME280;54981;50.206;15.978;2022-10-18T04:32:09;99838.63;;;8.72;100.00
68169;BME280;54981;50.206;15.978;2022-10-18T04:34:34;99836.22;;;8.65;100.00
68169;BME280;54981;50.206;15.978;2022-10-18T04:36:59;99838.00;;;8.64;100.00
68169;BME280;54981;50.206;15.978;2022-10-18T04:39:25;99847.84;;;8.61;100.00
68169;BME280;54981;50.206;15.978;2022-10-18T04:41:50;99837.16;;;8.64;100.00
68169;BME280;54981;50.206;15.978;2022-10-18T04:44:15;99842.59;;;8.59;100.00
68169;BME280;54981;50.206;15.978;2022-10-18T04:46:40;99846.16;;;8.58;100.00
68169;BME280;54981;50.206;15.978;2022-10-18T04:49:06;99839.97;;;8.59;100.00
68169;BME280;54981;50.206;15.978;2022-10-18T04:51:31;99842.78;;;8.53;100.00
68169;BME280;54981;50.206;15.978;2022-10-18T04:53:57;99841.00;;;8.53;100.00
68169;BME280;54981;50.206;15.978;2022-10-18T04:56:22;99837.47;;;8.53;100.00
68169;BME280;54981;50.206;15.978;2022-10-18T04:58:47;99830.34;;;8.55;100.00
68169;BME280;54981;50.206;15.978;2022-10-18T05:01:13;99832.88;;;8.58;100.00
68169;BME280;54981;50.206;15.978;2022-10-18T05:03:38;99840.00;;;8.58;100.00
68169;BME280;54981;50.206;15.978;2022-10-18T05:06:04;99850.22;;;8.42;100.00
68169;BME280;54981;50.206;15.978;2022-10-18T05:08:31;99849.59;;;8.32;100.00
68169;BME280;54981;50.206;15.978;2022-10-18T05:10:58;99849.59;;;8.32;100.00
68169;BME280;54981;50.206;15.978;2022-10-18T05:13:24;99854.06;;;8.31;100.00
68169;BME280;54981;50.206;15.978;2022-10-18T05:15:50;99845.19;;;8.32;100.00
68169;BME280;54981;50.206;15.978;2022-10-18T05:18:15;99849.56;;;8.33;100.00
68169;BME280;54981;50.206;15.978;2022-10-18T05:20:41;99842.34;;;8.39;100.00
68169;BME280;54981;50.206;15.978;2022-10-18T05:23:06;99842.44;;;8.36;100.00
68169;BME280;54981;50.206;15.978;2022-10-18T05:25:40;99844.16;;;8.37;100.00
68169;BME280;54981;50.206;15.978;2022-10-18T05:28:05;99845.47;;;8.23;100.00
68169;BME280;54981;50.206;15.978;2022-10-18T05:30:31;99845.47;;;8.23;100.00
68169;BME280;54981;50.206;15.978;2022-10-18T05:32:56;99848.97;;;8.25;100.00
68169;BME280;54981;50.206;15.978;2022-10-18T05:35:22;99850.50;;;8.32;100.00
68169;BME280;54981;50.206;15.978;2022-10-18T05:37:47;99853.16;;;8.32;100.00
68169;BME280;54981;50.206;15.978;2022-10-18T05:40:12;99847.72;;;8.37;100.00
68169;BME280;54981;50.206;15.978;2022-10-18T05:42:38;99845.81;;;8.42;100.00
68169;BME280;54981;50.206;15.978;2022-10-18T05:45:03;99844.97;;;8.39;100.00
68169;BME280;54981;50.206;15.978;2022-10-18T05:47:29;99839.69;;;8.39;100.00
68169;BME280;54981;50.206;15.978;2022-10-18T05:49:54;99836.06;;;8.43;100.00
68169;BME280;54981;50.206;15.978;2022-10-18T05:52:19;99833.25;;;8.47;100.00
68169;BME280;54981;50.206;15.978;2022-10-18T05:54:45;99841.25;;;8.46;100.00
68169;BME280;54981;50.206;15.978;2022-10-18T05:57:10;99844.47;;;8.27;100.00
68169;BME280;54981;50.206;15.978;2022-10-18T05:59:35;99853.31;;;8.26;100.00
68169;BME280;54981;50.206;15.978;2022-10-18T06:02:01;99849.47;;;8.37;100.00
68169;BME280;54981;50.206;15.978;2022-10-18T06:04:26;99852.72;;;8.46;100.00
68169;BME280;54981;50.206;15.978;2022-10-18T06:06:51;99850.63;;;8.58;100.00
68169;BME280;54981;50.206;15.978;2022-10-18T06:09:18;99848.53;;;8.67;100.00
68169;BME280;54981;50.206;15.978;2022-10-18T06:11:43;99853.50;;;8.78;100.00
68169;BME280;54981;50.206;15.978;2022-10-18T06:14:08;99851.34;;;8.89;100.00
68169;BME280;54981;50.206;15.978;2022-10-18T06:16:34;99857.97;;;9.03;100.00
68169;BME280;54981;50.206;15.978;2022-10-18T06:18:59;99854.88;;;9.16;100.00
68169;BME280;54981;50.206;15.978;2022-10-18T06:21:24;99859.63;;;9.32;100.00
68169;BME280;54981;50.206;15.978;2022-10-18T06:23:55;99860.06;;;9.45;100.00
68169;BME280;54981;50.206;15.978;2022-10-18T06:26:21;99857.78;;;9.59;100.00
68169;BME280;54981;50.206;15.978;2022-10-18T06:28:47;99860.91;;;9.70;100.00
68169;BME280;54981;50.206;15.978;2022-10-18T06:31:13;99861.28;;;9.85;100.00
68169;BME280;54981;50.206;15.978;2022-10-18T06:33:39;99863.34;;;10.00;100.00
68169;BME280;54981;50.206;15.978;2022-10-18T06:36:16;99862.84;;;10.14;100.00
68169;BME280;54981;50.206;15.978;2022-10-18T06:38:41;99864.22;;;10.24;100.00
68169;BME280;54981;50.206;15.978;2022-10-18T06:41:07;99864.09;;;10.27;100.00
68169;BME280;54981;50.206;15.978;2022-10-18T06:43:33;99851.34;;;10.37;100.00
68169;BME280;54981;50.206;15.978;2022-10-18T06:46:00;99858.16;;;10.44;100.00
68169;BME280;54981;50.206;15.978;2022-10-18T06:48:26;99855.19;;;10.52;100.00
68169;BME280;54981;50.206;15.978;2022-10-18T06:50:55;99869.81;;;10.63;100.00
68169;BME280;54981;50.206;15.978;2022-10-18T06:53:25;99865.81;;;10.74;100.00
68169;BME280;54981;50.206;15.978;2022-10-18T06:55:51;99854.41;;;10.92;100.00
68169;BME280;54981;50.206;15.978;2022-10-18T06:58:16;99857.38;;;11.06;100.00
68169;BME280;54981;50.206;15.978;2022-10-18T07:00:42;99855.84;;;11.21;100.00
68169;BME280;54981;50.206;15.978;2022-10-18T07:03:09;99856.19;;;11.34;100.00
68169;BME280;54981;50.206;15.978;2022-10-18T07:05:34;99854.63;;;11.49;100.00
68169;BME280;54981;50.206;15.978;2022-10-18T07:08:00;99854.88;;;11.63;100.00
68169;BME280;54981;50.206;15.978;2022-10-18T07:10:25;99851.25;;;11.85;100.00
68169;BME280;54981;50.206;15.978;2022-10-18T07:12:51;99855.63;;;12.06;97.85
68169;BME280;54981;50.206;15.978;2022-10-18T07:15:16;99849.94;;;12.33;95.31
68169;BME280;54981;50.206;15.978;2022-10-18T07:17:43;99849.84;;;12.53;94.22
68169;BME280;54981;50.206;15.978;2022-10-18T07:20:10;99851.53;;;12.73;91.89
68169;BME280;54981;50.206;15.978;2022-10-18T07:22:36;99861.25;;;12.93;89.56
68169;BME280;54981;50.206;15.978;2022-10-18T07:25:03;99859.84;;;13.04;89.61
68169;BME280;54981;50.206;15.978;2022-10-18T07:27:29;99871.66;;;13.17;89.93
68169;BME280;54981;50.206;15.978;2022-10-18T07:29:54;99872.81;;;13.30;88.94
68169;BME280;54981;50.206;15.978;2022-10-18T07:32:19;99867.75;;;13.41;87.31
68169;BME280;54981;50.206;15.978;2022-10-18T07:34:45;99870.28;;;13.45;87.79
68169;BME280;54981;50.206;15.978;2022-10-18T07:37:10;99869.78;;;13.54;86.38
68169;BME280;54981;50.206;15.978;2022-10-18T07:39:36;99869.88;;;13.52;85.61
68169;BME280;54981;50.206;15.978;2022-10-18T07:42:01;99873.41;;;13.53;86.80
68169;BME280;54981;50.206;15.978;2022-10-18T07:44:26;99867.03;;;13.55;85.98
68169;BME280;54981;50.206;15.978;2022-10-18T07:46:52;99856.69;;;13.65;86.35
68169;BME280;54981;50.206;15.978;2022-10-18T07:49:17;99856.03;;;13.61;86.69
68169;BME280;54981;50.206;15.978;2022-10-18T07:51:42;99852.44;;;13.61;85.68
68169;BME280;54981;50.206;15.978;2022-10-18T07:54:08;99853.63;;;13.73;86.34
68169;BME280;54981;50.206;15.978;2022-10-18T07:56:33;99842.59;;;13.79;85.42
68169;BME280;54981;50.206;15.978;2022-10-18T07:58:59;99854.56;;;14.05;84.52
68169;BME280;54981;50.206;15.978;2022-10-18T08:01:24;99846.88;;;14.31;82.86
68169;BME280;54981;50.206;15.978;2022-10-18T08:03:50;99846.91;;;14.46;81.74
68169;BME280;54981;50.206;15.978;2022-10-18T08:06:17;99846.94;;;14.62;81.11
68169;BME280;54981;50.206;15.978;2022-10-18T08:08:44;99847.50;;;14.83;79.39
68169;BME280;54981;50.206;15.978;2022-10-18T08:11:13;99838.38;;;15.02;79.22
68169;BME280;54981;50.206;15.978;2022-10-18T08:13:39;99833.66;;;15.21;78.28
68169;BME280;54981;50.206;15.978;2022-10-18T08:16:10;99827.63;;;15.32;78.00
68169;BME280;54981;50.206;15.978;2022-10-18T08:18:37;99820.00;;;15.54;77.11
68169;BME280;54981;50.206;15.978;2022-10-18T08:21:05;99818.16;;;15.71;76.10
68169;BME280;54981;50.206;15.978;2022-10-18T08:23:30;99819.28;;;15.81;75.09
68169;BME280;54981;50.206;15.978;2022-10-18T08:28:26;99817.25;;;16.13;75.07
68169;BME280;54981;50.206;15.978;2022-10-18T08:30:52;99810.78;;;16.30;73.47
68169;BME280;54981;50.206;15.978;2022-10-18T08:33:17;99807.97;;;16.46;72.82
68169;BME280;54981;50.206;15.978;2022-10-18T08:35:42;99805.31;;;16.59;70.93
68169;BME280;54981;50.206;15.978;2022-10-18T08:38:08;99801.44;;;16.50;70.76
68169;BME280;54981;50.206;15.978;2022-10-18T08:40:41;99802.59;;;16.73;72.49
68169;BME280;54981;50.206;15.978;2022-10-18T08:43:31;99789.56;;;17.07;71.10
68169;BME280;54981;50.206;15.978;2022-10-18T08:45:58;99793.47;;;17.03;69.38
68169;BME280;54981;50.206;15.978;2022-10-18T08:48:34;99797.03;;;17.29;70.02
68169;BME280;54981;50.206;15.978;2022-10-18T08:51:03;99783.03;;;17.24;69.22
68169;BME280;54981;50.206;15.978;2022-10-18T08:53:49;99796.72;;;17.34;68.88
68169;BME280;54981;50.206;15.978;2022-10-18T08:56:15;99792.09;;;17.61;69.85
68169;BME280;54981;50.206;15.978;2022-10-18T08:58:45;99786.94;;;17.58;67.88
68169;BME280;54981;50.206;15.978;2022-10-18T09:18:12;99777.03;;;18.58;64.96
68169;BME280;54981;50.206;15.978;2022-10-18T09:23:29;99769.91;;;18.33;64.22
68169;BME280;54981;50.206;15.978;2022-10-18T09:26:08;99763.59;;;18.69;64.88
68169;BME280;54981;50.206;15.978;2022-10-18T09:28:53;99750.13;;;19.05;63.12
68169;BME280;54981;50.206;15.978;2022-10-18T09:34:16;99743.59;;;19.31;61.70
68169;BME280;54981;50.206;15.978;2022-10-18T09:36:50;99743.94;;;19.38;61.45
68169;BME280;54981;50.206;15.978;2022-10-18T09:39:20;99742.38;;;19.58;61.81
68169;BME280;54981;50.206;15.978;2022-10-18T09:41:53;99741.72;;;19.32;60.43
68169;BME280;54981;50.206;15.978;2022-10-18T09:44:23;99733.41;;;19.46;61.48
68169;BME280;54981;50.206;15.978;2022-10-18T09:47:01;99745.03;;;19.35;61.22
68169;BME280;54981;50.206;15.978;2022-10-18T09:49:35;99742.59;;;19.32;61.59
68169;BME280;54981;50.206;15.978;2022-10-18T09:52:07;99741.38;;;19.59;60.79
68169;BME280;54981;50.206;15.978;2022-10-18T09:54:41;99742.00;;;19.51;60.80
68169;BME280;54981;50.206;15.978;2022-10-18T09:57:19;99743.38;;;19.68;61.37
68169;BME280;54981;50.206;15.978;2022-10-18T09:59:48;99740.91;;;19.99;60.40
68169;BME280;54981;50.206;15.978;2022-10-18T10:02:19;99735.34;;;20.12;60.91
68169;BME280;54981;50.206;15.978;2022-10-18T10:04:49;99737.25;;;20.32;59.12
68169;BME280;54981;50.206;15.978;2022-10-18T10:07:20;99728.09;;;20.24;59.30
68169;BME280;54981;50.206;15.978;2022-10-18T10:09:55;99726.03;;;20.48;58.92
68169;BME280;54981;50.206;15.978;2022-10-18T10:12:32;99725.31;;;20.57;57.92
68169;BME280;54981;50.206;15.978;2022-10-18T10:18:03;99741.28;;;20.60;58.18
68169;BME280;54981;50.206;15.978;2022-10-18T10:23:06;99727.28;;;20.44;59.68
68169;BME280;54981;50.206;15.978;2022-10-18T10:25:33;99727.53;;;20.41;59.00
68169;BME280;54981;50.206;15.978;2022-10-18T10:28:05;99728.84;;;20.58;60.35
68169;BME280;54981;50.206;15.978;2022-10-18T10:30:36;99725.13;;;20.27;59.71
68169;BME280;54981;50.206;15.978;2022-10-18T10:33:03;99718.66;;;20.61;60.06
68169;BME280;54981;50.206;15.978;2022-10-18T10:35:38;99720.56;;;20.71;59.79
68169;BME280;54981;50.206;15.978;2022-10-18T10:38:04;99715.56;;;20.87;58.04
68169;BME280;54981;50.206;15.978;2022-10-18T10:40:39;99704.13;;;20.62;59.09
68169;BME280;54981;50.206;15.978;2022-10-18T10:43:37;99701.50;;;20.72;59.38
68169;BME280;54981;50.206;15.978;2022-10-18T10:46:11;99701.84;;;19.92;62.63
68169;BME280;54981;50.206;15.978;2022-10-18T10:48:44;99702.91;;;20.55;60.75
68169;BME280;54981;50.206;15.978;2022-10-18T10:51:11;99697.13;;;20.05;63.33
68169;BME280;54981;50.206;15.978;2022-10-18T10:56:16;99689.00;;;21.23;58.32
68169;BME280;54981;50.206;15.978;2022-10-18T10:58:41;99694.06;;;20.85;61.18
68169;BME280;54981;50.206;15.978;2022-10-18T11:01:23;99685.03;;;21.27;58.15
68169;BME280;54981;50.206;15.978;2022-10-18T11:03:52;99677.44;;;21.42;58.19
68169;BME280;54981;50.206;15.978;2022-10-18T11:06:37;99667.31;;;21.23;60.83
68169;BME280;54981;50.206;15.978;2022-10-18T11:09:11;99677.97;;;21.66;59.37
68169;BME280;54981;50.206;15.978;2022-10-18T11:11:43;99680.44;;;21.79;58.44
68169;BME280;54981;50.206;15.978;2022-10-18T11:14:21;99663.16;;;21.80;57.87
68169;BME280;54981;50.206;15.978;2022-10-18T11:19:31;99667.94;;;22.07;57.10
68169;BME280;54981;50.206;15.978;2022-10-18T11:22:00;99666.88;;;21.69;58.71
68169;BME280;54981;50.206;15.978;2022-10-18T11:24:28;99664.38;;;21.36;60.05
68169;BME280;54981;50.206;15.978;2022-10-18T11:37:45;99639.72;;;21.29;61.24
68169;BME280;54981;50.206;15.978;2022-10-18T11:48:35;99635.00;;;21.62;59.68
68169;BME280;54981;50.206;15.978;2022-10-18T11:54:04;99634.31;;;20.45;64.38
68169;BME280;54981;50.206;15.978;2022-10-18T12:05:29;99615.09;;;20.59;63.56
68169;BME280;54981;50.206;15.978;2022-10-18T12:08:07;99604.00;;;20.51;64.01
68169;BME280;54981;50.206;15.978;2022-10-18T12:10:34;99602.63;;;20.36;65.48
68169;BME280;54981;50.206;15.978;2022-10-18T12:13:03;99588.91;;;20.28;66.46
68169;BME280;54981;50.206;15.978;2022-10-18T12:15:33;99593.84;;;20.22;67.23
68169;BME280;54981;50.206;15.978;2022-10-18T12:18:05;99602.47;;;20.16;65.93
68169;BME280;54981;50.206;15.978;2022-10-18T12:20:38;99597.38;;;20.02;67.18
68169;BME280;54981;50.206;15.978;2022-10-18T12:23:11;99592.09;;;20.00;67.87
68169;BME280;54981;50.206;15.978;2022-10-18T12:25:42;99602.81;;;19.91;68.27
68169;BME280;54981;50.206;15.978;2022-10-18T12:28:26;99595.81;;;19.88;69.96
68169;BME280;54981;50.206;15.978;2022-10-18T12:33:50;99587.38;;;19.59;71.62
68169;BME280;54981;50.206;15.978;2022-10-18T12:38:44;99579.28;;;19.48;71.38
68169;BME280;54981;50.206;15.978;2022-10-18T12:41:24;99570.72;;;19.43;73.08
68169;BME280;54981;50.206;15.978;2022-10-18T12:44:15;99569.13;;;19.40;73.22
68169;BME280;54981;50.206;15.978;2022-10-18T12:46:45;99563.97;;;19.37;76.51
68169;BME280;54981;50.206;15.978;2022-10-18T12:49:17;99567.53;;;19.26;75.36
68169;BME280;54981;50.206;15.978;2022-10-18T12:52:35;99557.09;;;19.22;77.84
68169;BME280;54981;50.206;15.978;2022-10-18T12:54:37;99554.19;;;19.13;79.92
68169;BME280;54981;50.206;15.978;2022-10-18T12:57:21;99550.75;;;19.11;77.98
68169;BME280;54981;50.206;15.978;2022-10-18T12:59:47;99547.41;;;19.19;76.09
68169;BME280;54981;50.206;15.978;2022-10-18T13:02:20;99540.06;;;19.21;75.32
68169;BME280;54981;50.206;15.978;2022-10-18T13:04:46;99535.53;;;19.10;76.67
68169;BME280;54981;50.206;15.978;2022-10-18T13:07:31;99538.88;;;19.03;76.53
68169;BME280;54981;50.206;15.978;2022-10-18T13:18:04;99536.53;;;18.87;77.76
68169;BME280;54981;50.206;15.978;2022-10-18T13:20:37;99531.22;;;18.74;77.65
68169;BME280;54981;50.206;15.978;2022-10-18T13:25:50;99534.56;;;18.78;77.23
68169;BME280;54981;50.206;15.978;2022-10-18T13:33:48;99518.00;;;18.82;78.62
68169;BME280;54981;50.206;15.978;2022-10-18T13:44:17;99524.34;;;19.26;75.71
68169;BME280;54981;50.206;15.978;2022-10-18T13:50:07;99515.50;;;19.35;75.04
68169;BME280;54981;50.206;15.978;2022-10-18T13:52:35;99506.66;;;19.33;74.31
68169;BME280;54981;50.206;15.978;2022-10-18T14:03:49;99505.59;;;19.13;76.51
68169;BME280;54981;50.206;15.978;2022-10-18T14:06:24;99504.22;;;19.19;76.84
68169;BME280;54981;50.206;15.978;2022-10-18T14:14:27;99497.00;;;18.74;77.89
68169;BME280;54981;50.206;15.978;2022-10-18T14:19:43;99498.13;;;18.72;77.33
68169;BME280;54981;50.206;15.978;2022-10-18T14:22:20;99499.47;;;18.78;75.80
68169;BME280;54981;50.206;15.978;2022-10-18T14:24:50;99494.94;;;18.78;77.07
68169;BME280;54981;50.206;15.978;2022-10-18T14:27:20;99499.84;;;18.62;79.81
68169;BME280;54981;50.206;15.978;2022-10-18T14:29:46;99498.84;;;18.40;78.60
68169;BME280;54981;50.206;15.978;2022-10-18T14:32:25;99507.72;;;18.18;83.76
68169;BME280;54981;50.206;15.978;2022-10-18T14:34:51;99515.38;;;18.00;85.11
68169;BME280;54981;50.206;15.978;2022-10-18T14:37:29;99513.41;;;17.91;84.45
68169;BME280;54981;50.206;15.978;2022-10-18T14:39:56;99512.44;;;17.92;83.48
68169;BME280;54981;50.206;15.978;2022-10-18T14:42:23;99512.31;;;17.94;86.95
68169;BME280;54981;50.206;15.978;2022-10-18T14:44:50;99513.28;;;17.93;86.38
68169;BME280;54981;50.206;15.978;2022-10-18T14:47:20;99507.56;;;17.97;85.85
68169;BME280;54981;50.206;15.978;2022-10-18T14:49:46;99506.47;;;18.00;81.52
68169;BME280;54981;50.206;15.978;2022-10-18T14:52:17;99502.56;;;18.04;81.42
68169;BME280;54981;50.206;15.978;2022-10-18T14:54:44;99498.53;;;18.09;81.54
68169;BME280;54981;50.206;15.978;2022-10-18T14:57:22;99495.81;;;18.09;82.13
68169;BME280;54981;50.206;15.978;2022-10-18T14:59:54;99491.53;;;18.07;80.53
68169;BME280;54981;50.206;15.978;2022-10-18T15:02:27;99496.91;;;18.07;81.88
68169;BME280;54981;50.206;15.978;2022-10-18T15:04:55;99497.88;;;18.06;80.42
68169;BME280;54981;50.206;15.978;2022-10-18T15:07:21;99499.22;;;18.00;82.42
68169;BME280;54981;50.206;15.978;2022-10-18T15:09:48;99493.44;;;17.94;81.75
68169;BME280;54981;50.206;15.978;2022-10-18T15:12:14;99491.34;;;17.86;82.96
68169;BME280;54981;50.206;15.978;2022-10-18T15:14:40;99494.13;;;17.84;82.36
68169;BME280;54981;50.206;15.978;2022-10-18T15:17:13;99489.84;;;17.82;81.37
68169;BME280;54981;50.206;15.978;2022-10-18T15:19:53;99489.00;;;17.81;81.41